Time;durP1;ratioP1;P1;durP2;ratioP2;P2;SDS_P1;SDS_P2;PMS_P1;PMS_P2;Temp;Humidity;BMP_temperature;BMP_pressure;BME280_temperature;BME280_humidity;BME280_pressure;Samples;Min_cycle;Max_cycle;Signal;HPM_P1;HPM_P2
2023/08/17 00:01:40;;;;;;;3.40;1.70;;;21.20;91.80;;;;;;4927608;29;20067;-83
2023/08/17 00:04:06;;;;;;;4.60;1.45;;;21.20;91.80;;;;;;4925348;29;20020;-84
2023/08/17 00:06:31;;;;;;;5.75;1.45;;;21.10;91.90;;;;;;4913370;29;20115;-84
2023/08/17 00:08:59;;;;;;;5.40;1.35;;;21.10;91.80;;;;;;4925411;29;20480;-84
2023/08/17 00:11:27;;;;;;;2.55;1.30;;;21.10;91.80;;;;;;4923809;29;20044;-84
2023/08/17 00:13:53;;;;;;;3.60;1.38;;;21.10;91.90;;;;;;4925113;29;20051;-84
2023/08/17 00:16:18;;;;;;;6.93;1.20;;;21.10;92.00;;;;;;4922020;29;20016;-84
2023/08/17 00:18:44;;;;;;;3.35;1.25;;;21.10;92.10;;;;;;4925027;29;20039;-84
2023/08/17 00:21:09;;;;;;;4.30;1.23;;;21.10;92.20;;;;;;4924995;29;20024;-83
2023/08/17 00:23:35;;;;;;;2.95;1.33;;;21.10;92.40;;;;;;4911133;29;20043;-84
2023/08/17 00:26:01;;;;;;;3.22;1.40;;;21.10;92.70;;;;;;4908875;29;20499;-84
2023/08/17 00:28:27;;;;;;;4.10;1.67;;;21.00;92.80;;;;;;4925371;29;20042;-84
2023/08/17 00:30:52;;;;;;;3.40;1.35;;;21.00;93.00;;;;;;4924091;29;20059;-84
2023/08/17 00:33:18;;;;;;;4.38;1.65;;;20.90;93.30;;;;;;4925374;29;20059;-85
2023/08/17 00:35:45;;;;;;;4.53;1.73;;;20.90;93.60;;;;;;4926534;29;20082;-84
2023/08/17 00:38:11;;;;;;;3.67;1.50;;;20.80;93.50;;;;;;4910575;29;20433;-84
2023/08/17 00:40:37;;;;;;;1.73;1.27;;;20.80;93.80;;;;;;4912156;29;20036;-84
2023/08/17 00:43:03;;;;;;;1.92;1.13;;;20.80;94.10;;;;;;4922639;29;20087;-84
2023/08/17 00:45:29;;;;;;;3.95;1.50;;;20.70;94.30;;;;;;4904902;29;20061;-84
2023/08/17 00:47:57;;;;;;;3.63;1.65;;;20.60;94.40;;;;;;4923364;29;20016;-84
2023/08/17 00:50:24;;;;;;;3.70;1.50;;;20.60;94.50;;;;;;4923804;29;20019;-83
2023/08/17 00:52:52;;;;;;;5.57;1.55;;;20.60;94.80;;;;;;4923848;29;20629;-84
2023/08/17 00:55:17;;;;;;;4.90;1.88;;;20.60;94.80;;;;;;4921670;29;20062;-85
2023/08/17 00:57:43;;;;;;;3.80;1.73;;;20.50;95.00;;;;;;4916792;29;20055;-84
2023/08/17 01:00:12;;;;;;;2.28;1.45;;;20.50;95.20;;;;;;4923944;29;20023;-85
2023/08/17 01:02:40;;;;;;;6.65;2.15;;;20.50;95.10;;;;;;4924097;29;20036;-84
2023/08/17 01:05:06;;;;;;;4.85;1.77;;;20.50;95.80;;;;;;4925486;29;20479;-85
2023/08/17 01:07:32;;;;;;;3.33;2.30;;;20.40;96.10;;;;;;4924469;29;20028;-85
2023/08/17 01:09:58;;;;;;;2.72;1.80;;;20.30;96.50;;;;;;4908318;29;20112;-84
2023/08/17 01:12:31;;;;;;;4.68;1.88;;;20.30;96.70;;;;;;4907060;29;20028;-85
2023/08/17 01:15:03;;;;;;;;;;;20.20;97.30;;;;;;4923644;29;20063;-84
2023/08/17 01:17:40;;;;;;;3.88;1.85;;;20.10;97.30;;;;;;4918489;29;19911;-84
2023/08/17 01:20:09;;;;;;;7.55;1.88;;;20.00;97.60;;;;;;4924986;29;20055;-85
2023/08/17 01:22:40;;;;;;;4.57;1.80;;;19.90;97.20;;;;;;4922761;29;20040;-83
2023/08/17 01:25:06;;;;;;;5.40;2.08;;;19.80;97.40;;;;;;4922711;29;20020;-84
2023/08/17 01:27:39;;;;;;;5.32;1.83;;;19.70;97.50;;;;;;4942583;29;20043;-84
2023/08/17 01:30:05;;;;;;;5.03;2.10;;;19.60;97.40;;;;;;4941204;29;20028;-83
2023/08/17 01:32:41;;;;;;;7.88;2.13;;;19.50;97.60;;;;;;4926971;29;20032;-84
2023/08/17 01:35:14;;;;;;;4.68;1.80;;;19.50;97.70;;;;;;4924957;29;20028;-85
2023/08/17 01:37:41;;;;;;;3.63;1.90;;;19.40;97.80;;;;;;4923433;29;20036;-85
2023/08/17 01:40:09;;;;;;;4.10;1.90;;;19.40;98.10;;;;;;4922758;29;20443;-84
2023/08/17 01:42:36;;;;;;;4.15;2.00;;;19.30;98.50;;;;;;4905900;29;20032;-84
2023/08/17 01:45:02;;;;;;;6.80;2.10;;;19.30;98.60;;;;;;4923415;29;20064;-85
2023/08/17 01:47:27;;;;;;;3.05;2.00;;;19.30;98.60;;;;;;4921355;29;20083;-85
2023/08/17 01:49:53;;;;;;;8.07;1.95;;;19.20;98.70;;;;;;4919794;29;20028;-84
2023/08/17 01:52:18;;;;;;;6.95;2.67;;;19.10;98.80;;;;;;4907867;29;20043;-84
2023/08/17 01:54:44;;;;;;;11.70;2.10;;;19.10;99.00;;;;;;4900511;29;20100;-84
2023/08/17 01:57:12;;;;;;;5.28;2.40;;;19.10;99.20;;;;;;4922490;29;20032;-83
2023/08/17 01:59:37;;;;;;;6.28;2.22;;;19.00;99.50;;;;;;4924703;29;20480;-85
2023/08/17 02:02:03;;;;;;;5.10;2.88;;;18.90;99.60;;;;;;4903989;29;20064;-85
2023/08/17 02:04:29;;;;;;;4.47;2.72;;;18.90;99.60;;;;;;4921425;29;20086;-84
2023/08/17 02:06:54;;;;;;;5.30;2.30;;;18.90;99.90;;;;;;4919750;29;20055;-84
2023/08/17 02:09:20;;;;;;;5.63;2.67;;;18.90;99.90;;;;;;4925263;29;20103;-84
2023/08/17 02:11:45;;;;;;;6.82;2.42;;;18.90;99.90;;;;;;4906723;29;20030;-84
2023/08/17 02:14:11;;;;;;;4.55;2.45;;;18.80;99.90;;;;;;4905405;29;20711;-84
2023/08/17 02:16:36;;;;;;;5.38;2.80;;;18.90;99.90;;;;;;4922904;29;20408;-84
2023/08/17 02:19:02;;;;;;;10.30;3.08;;;18.80;99.90;;;;;;4919371;29;20136;-84
2023/08/17 02:21:28;;;;;;;6.95;2.72;;;18.80;99.90;;;;;;4922590;29;20028;-84
2023/08/17 02:23:54;;;;;;;8.32;2.70;;;18.80;99.90;;;;;;4923782;29;20491;-85
2023/08/17 02:26:19;;;;;;;3.72;2.50;;;18.80;99.90;;;;;;4922664;29;20547;-85
2023/08/17 02:28:45;;;;;;;7.32;2.80;;;18.80;99.90;;;;;;4910158;29;20055;-85
2023/08/17 02:31:13;;;;;;;6.97;2.55;;;18.80;99.90;;;;;;4923871;29;20086;-84
2023/08/17 02:33:38;;;;;;;6.75;2.55;;;18.80;99.90;;;;;;4914786;29;20071;-82
2023/08/17 02:36:04;;;;;;;6.22;2.60;;;18.80;99.90;;;;;;4924339;29;20047;-84
2023/08/17 02:38:30;;;;;;;8.25;2.33;;;18.80;99.90;;;;;;4919204;29;20070;-84
2023/08/17 02:40:55;;;;;;;5.55;2.47;;;18.70;99.90;;;;;;4918756;29;20607;-84
2023/08/17 02:43:23;;;;;;;7.20;2.72;;;18.70;99.90;;;;;;4903086;29;20087;-84
2023/08/17 02:45:48;;;;;;;3.40;2.30;;;18.70;99.90;;;;;;4903582;29;20031;-83
2023/08/17 02:48:14;;;;;;;59.45;20.83;;;18.70;99.90;;;;;;4902878;29;20031;-89
2023/08/17 02:50:40;;;;;;;11.95;4.72;;;18.70;99.90;;;;;;4916530;29;20056;-85
2023/08/17 02:53:05;;;;;;;7.53;2.65;;;18.70;99.90;;;;;;4923463;29;20484;-84
2023/08/17 02:55:31;;;;;;;6.57;2.30;;;18.60;99.90;;;;;;4922152;29;20027;-85
2023/08/17 02:57:59;;;;;;;5.35;2.38;;;18.60;99.90;;;;;;4921507;29;20039;-85
2023/08/17 03:00:24;;;;;;;5.10;2.67;;;18.60;99.90;;;;;;4919740;29;20087;-85
2023/08/17 03:02:52;;;;;;;4.35;2.35;;;18.50;99.90;;;;;;4921610;29;20426;-85
2023/08/17 03:05:20;;;;;;;4.18;2.60;;;18.50;99.90;;;;;;4914199;29;20032;-85
2023/08/17 03:07:46;;;;;;;4.85;2.40;;;18.50;99.90;;;;;;4925329;29;20551;-84
2023/08/17 03:10:12;;;;;;;10.02;2.72;;;18.50;99.90;;;;;;4918515;29;20106;-84
2023/08/17 03:12:38;;;;;;;3.65;2.58;;;18.50;99.90;;;;;;4920284;29;20024;-85
2023/08/17 03:15:06;;;;;;;5.47;2.28;;;18.50;99.90;;;;;;4922579;29;20472;-85
2023/08/17 03:17:31;;;;;;;6.57;2.70;;;18.50;99.90;;;;;;4922243;29;20059;-84
2023/08/17 03:20:00;;;;;;;5.60;2.05;;;18.50;99.90;;;;;;4921664;29;20083;-85
2023/08/17 03:22:25;;;;;;;5.70;2.55;;;18.50;99.90;;;;;;4925172;29;20050;-85
2023/08/17 03:24:51;;;;;;;4.72;2.30;;;18.50;99.90;;;;;;4920661;29;20754;-85
2023/08/17 03:27:17;;;;;;;6.53;2.45;;;18.50;99.90;;;;;;4921308;29;20030;-85
2023/08/17 03:29:42;;;;;;;5.35;2.47;;;18.50;99.90;;;;;;4921113;29;20362;-85
2023/08/17 03:32:08;;;;;;;3.58;2.50;;;18.50;99.90;;;;;;4922544;29;20024;-85
2023/08/17 03:34:34;;;;;;;3.53;2.60;;;18.40;99.90;;;;;;4925002;29;20034;-84
2023/08/17 03:36:59;;;;;;;6.03;2.47;;;18.40;99.90;;;;;;4922892;29;20805;-85
2023/08/17 03:39:25;;;;;;;4.82;2.40;;;18.40;99.90;;;;;;4917982;29;20131;-85
2023/08/17 03:41:53;;;;;;;7.95;3.00;;;18.40;99.90;;;;;;4921070;29;20032;-85
2023/08/17 03:44:21;;;;;;;4.85;2.60;;;18.40;99.90;;;;;;4920240;29;20019;-85
2023/08/17 03:46:48;;;;;;;5.13;2.50;;;18.40;99.90;;;;;;4918671;29;20031;-86
2023/08/17 03:49:14;;;;;;;6.22;2.65;;;18.40;99.90;;;;;;4911446;29;20049;-84
2023/08/17 03:51:40;;;;;;;9.55;2.88;;;18.40;99.90;;;;;;4922251;29;20036;-85
2023/08/17 03:54:05;;;;;;;8.95;2.97;;;18.30;99.90;;;;;;4919103;29;20031;-85
2023/08/17 03:56:31;;;;;;;4.35;2.33;;;18.30;99.90;;;;;;4916056;29;20043;-84
2023/08/17 03:58:57;;;;;;;7.47;2.72;;;18.30;99.90;;;;;;4917649;29;20036;-85
2023/08/17 04:01:22;;;;;;;8.10;2.42;;;18.30;99.90;;;;;;4920355;29;20039;-84
2023/08/17 04:03:48;;;;;;;7.47;2.88;;;18.40;99.90;;;;;;4920594;29;20079;-85
2023/08/17 04:06:14;;;;;;;6.43;2.67;;;18.50;99.90;;;;;;4920568;29;20024;-85
2023/08/17 04:08:39;;;;;;;10.55;2.90;;;18.40;99.90;;;;;;4917210;29;20473;-84
2023/08/17 04:11:05;;;;;;;5.47;2.90;;;18.40;99.90;;;;;;4918378;29;20559;-85
2023/08/17 04:13:31;;;;;;;5.95;3.00;;;18.50;99.90;;;;;;4904087;29;20028;-85
2023/08/17 04:15:57;;;;;;;6.57;2.65;;;18.40;99.90;;;;;;4919513;29;20445;-86
2023/08/17 04:18:22;;;;;;;4.90;2.80;;;18.50;99.90;;;;;;4919856;29;20130;-85
2023/08/17 04:20:48;;;;;;;4.47;2.70;;;18.50;99.90;;;;;;4920136;29;20028;-85
2023/08/17 04:23:14;;;;;;;5.72;3.15;;;18.50;99.90;;;;;;4930871;29;20039;-85
2023/08/17 04:25:40;;;;;;;6.18;2.75;;;18.50;99.90;;;;;;4934266;29;20023;-84
2023/08/17 04:28:05;;;;;;;6.18;3.08;;;18.40;99.90;;;;;;4927097;29;20051;-85
2023/08/17 04:30:31;;;;;;;6.10;2.78;;;18.50;99.90;;;;;;4904033;29;20245;-85
2023/08/17 04:32:57;;;;;;;4.63;3.00;;;18.50;99.90;;;;;;4928210;29;20496;-85
2023/08/17 04:35:22;;;;;;;9.77;3.10;;;18.50;99.90;;;;;;4909198;29;20024;-85
2023/08/17 04:37:48;;;;;;;12.82;3.28;;;18.50;99.90;;;;;;4922457;29;20038;-84
2023/08/17 04:40:16;;;;;;;7.95;3.05;;;18.50;99.90;;;;;;4927412;29;20035;-85
2023/08/17 04:42:42;;;;;;;6.45;2.72;;;18.40;99.90;;;;;;4908075;29;20035;-85
2023/08/17 04:45:10;;;;;;;11.70;2.83;;;18.50;99.90;;;;;;4924411;29;20016;-85
2023/08/17 04:47:36;;;;;;;5.15;2.78;;;18.50;99.90;;;;;;4913234;29;20468;-84
2023/08/17 04:50:02;;;;;;;7.57;2.70;;;18.50;99.90;;;;;;4922962;29;20110;-85
2023/08/17 04:52:27;;;;;;;4.50;2.80;;;18.40;99.90;;;;;;4910248;29;20042;-85
2023/08/17 04:54:53;;;;;;;12.45;3.58;;;18.50;99.90;;;;;;4922467;29;20025;-85
2023/08/17 04:57:18;;;;;;;6.60;3.10;;;18.40;99.90;;;;;;4925394;29;20379;-84
2023/08/17 04:59:49;;;;;;;5.28;2.58;;;18.40;99.90;;;;;;4924705;29;20033;-85
2023/08/17 05:02:14;;;;;;;6.63;3.25;;;18.50;99.90;;;;;;4923445;29;20047;-85
2023/08/17 05:04:40;;;;;;;3.60;3.30;;;18.60;99.90;;;;;;4923491;29;20016;-85
2023/08/17 05:07:05;;;;;;;8.13;3.47;;;18.50;99.90;;;;;;4918130;29;20502;-85
2023/08/17 05:09:31;;;;;;;10.10;3.45;;;18.40;99.90;;;;;;4922984;29;20024;-85
2023/08/17 05:11:57;;;;;;;10.18;3.90;;;18.50;99.90;;;;;;4906219;29;20478;-84
2023/08/17 05:14:22;;;;;;;6.68;3.08;;;18.50;99.90;;;;;;4921885;29;20023;-85
2023/08/17 05:16:48;;;;;;;6.00;3.05;;;18.50;99.90;;;;;;4924869;29;20098;-84
2023/08/17 05:19:14;;;;;;;5.28;3.00;;;18.50;99.90;;;;;;4906758;29;20484;-84
2023/08/17 05:21:41;;;;;;;10.70;3.30;;;18.60;99.90;;;;;;4922622;29;20110;-84
2023/08/17 05:24:07;;;;;;;11.43;3.08;;;18.60;99.90;;;;;;4908632;29;20035;-85
2023/08/17 05:26:33;;;;;;;4.15;2.95;;;18.60;99.90;;;;;;4920256;29;20019;-85
2023/08/17 05:28:58;;;;;;;7.00;2.97;;;18.70;99.90;;;;;;4922409;29;20404;-85
2023/08/17 05:31:24;;;;;;;4.50;2.75;;;18.70;99.90;;;;;;4915513;29;20034;-83
2023/08/17 05:33:49;;;;;;;5.43;3.17;;;18.70;99.90;;;;;;4923436;29;20028;-84
2023/08/17 05:36:15;;;;;;;10.93;3.17;;;18.80;99.90;;;;;;4920360;29;20585;-84
2023/08/17 05:38:41;;;;;;;9.90;3.67;;;18.80;99.90;;;;;;4921610;29;20032;-84
2023/08/17 05:41:06;;;;;;;4.05;2.80;;;18.80;99.90;;;;;;4906766;29;20024;-85
2023/08/17 05:43:32;;;;;;;6.03;2.85;;;18.90;99.90;;;;;;4919165;29;20477;-85
2023/08/17 05:46:01;;;;;;;6.03;3.00;;;18.90;99.90;;;;;;4908689;29;20020;-84
2023/08/17 05:48:26;;;;;;;5.32;2.88;;;18.90;99.90;;;;;;4923907;29;20087;-85
2023/08/17 05:50:52;;;;;;;5.18;2.78;;;19.00;99.90;;;;;;4925069;29;20020;-85
2023/08/17 05:53:18;;;;;;;14.07;3.55;;;19.00;99.90;;;;;;4923217;29;20024;-85
2023/08/17 05:55:46;;;;;;;8.35;3.08;;;19.00;99.90;;;;;;4903408;29;20401;-85
2023/08/17 05:58:11;;;;;;;5.47;2.90;;;19.00;99.90;;;;;;4923353;29;20028;-85
2023/08/17 06:00:38;;;;;;;8.80;3.10;;;19.00;99.90;;;;;;4920527;29;20024;-85
2023/08/17 06:03:04;;;;;;;11.02;2.92;;;19.00;99.90;;;;;;4906493;29;20178;-85
2023/08/17 06:05:30;;;;;;;5.65;2.58;;;19.00;99.90;;;;;;4922615;29;20500;-85
2023/08/17 06:07:56;;;;;;;6.28;2.72;;;19.10;99.90;;;;;;4906408;29;20020;-85
2023/08/17 06:10:26;;;;;;;5.93;2.88;;;19.20;99.90;;;;;;4920880;29;20111;-85
2023/08/17 06:12:53;;;;;;;4.28;2.53;;;19.20;99.90;;;;;;4911779;29;20034;-85
2023/08/17 06:15:19;;;;;;;6.10;2.25;;;19.20;99.90;;;;;;4905969;29;20016;-85
2023/08/17 06:17:44;;;;;;;5.22;2.67;;;19.30;99.90;;;;;;4906725;29;20047;-85
2023/08/17 06:20:11;;;;;;;11.68;2.53;;;19.30;99.90;;;;;;4924760;29;20095;-85
2023/08/17 06:22:37;;;;;;;5.07;2.58;;;19.30;99.90;;;;;;4922759;29;20044;-85
2023/08/17 06:25:05;;;;;;;8.20;2.60;;;19.40;99.90;;;;;;4910886;29;20040;-85
2023/08/17 06:27:30;;;;;;;9.27;2.75;;;19.40;99.90;;;;;;4922637;29;20023;-85
2023/08/17 06:29:56;;;;;;;9.38;2.88;;;19.40;99.90;;;;;;4922120;29;20443;-84
2023/08/17 06:32:21;;;;;;;9.25;2.78;;;19.40;99.90;;;;;;4925476;29;20356;-85
2023/08/17 06:34:49;;;;;;;8.02;2.50;;;19.50;99.90;;;;;;4920755;29;20673;-84
2023/08/17 06:37:15;;;;;;;5.25;3.20;;;19.50;99.80;;;;;;4903617;29;20051;-85
2023/08/17 06:39:41;;;;;;;4.32;2.40;;;19.60;99.70;;;;;;4923279;29;20071;-85
2023/08/17 06:42:06;;;;;;;8.82;3.05;;;19.60;99.80;;;;;;4921125;29;20028;-83
2023/08/17 06:44:34;;;;;;;10.75;2.97;;;19.50;99.70;;;;;;4921716;29;20028;-84
2023/08/17 06:47:00;;;;;;;13.73;2.92;;;19.60;99.90;;;;;;4909654;29;20055;-84
2023/08/17 06:49:26;;;;;;;8.82;2.60;;;19.60;99.80;;;;;;4910666;29;20070;-83
2023/08/17 06:51:52;;;;;;;11.90;3.72;;;19.60;99.50;;;;;;4918766;29;20607;-84
2023/08/17 06:54:17;;;;;;;7.90;3.03;;;19.70;99.50;;;;;;4920599;29;20103;-83
2023/08/17 06:56:43;;;;;;;5.68;2.58;;;19.80;99.30;;;;;;4921455;29;20034;-83
2023/08/17 06:59:08;;;;;;;7.72;2.83;;;19.90;99.20;;;;;;4905680;29;20110;-83
2023/08/17 07:01:34;;;;;;;10.13;2.63;;;20.00;99.10;;;;;;4907089;29;20079;-83
2023/08/17 07:03:59;;;;;;;6.43;2.22;;;20.00;99.00;;;;;;4921157;29;20043;-83
2023/08/17 07:06:28;;;;;;;3.53;2.05;;;19.90;99.30;;;;;;4923941;29;20146;-83
2023/08/17 07:08:54;;;;;;;5.53;2.38;;;19.90;99.00;;;;;;4925127;29;20032;-83
2023/08/17 07:11:20;;;;;;;12.65;2.83;;;20.00;98.80;;;;;;4921357;29;20072;-84
2023/08/17 07:13:45;;;;;;;4.97;2.28;;;20.10;98.60;;;;;;4923412;29;20488;-83
2023/08/17 07:16:11;;;;;;;6.40;2.53;;;20.20;98.70;;;;;;4920952;29;20097;-83
2023/08/17 07:18:37;;;;;;;3.78;2.80;;;20.20;98.70;;;;;;4923324;29;20031;-83
2023/08/17 07:21:05;;;;;;;6.25;2.58;;;20.30;98.50;;;;;;4928159;29;20028;-84
2023/08/17 07:23:30;;;;;;;11.48;2.90;;;20.30;98.40;;;;;;4925378;29;20043;-82
2023/08/17 07:25:56;;;;;;;15.88;3.75;;;20.30;98.40;;;;;;4932601;29;20739;-84
2023/08/17 07:28:21;;;;;;;7.88;2.80;;;20.30;98.50;;;;;;4908733;29;20544;-83
2023/08/17 07:30:47;;;;;;;10.65;2.85;;;20.30;98.20;;;;;;4905930;29;20159;-83
2023/08/17 07:33:13;;;;;;;6.57;2.35;;;20.40;98.20;;;;;;4920463;29;20481;-83
2023/08/17 07:35:38;;;;;;;8.35;2.78;;;20.40;98.20;;;;;;4919839;29;20481;-83
2023/08/17 07:38:04;;;;;;;10.57;3.08;;;20.50;98.20;;;;;;4916809;29;20036;-83
2023/08/17 07:40:29;;;;;;;5.28;2.67;;;20.50;98.30;;;;;;4920632;29;20145;-83
2023/08/17 07:42:55;;;;;;;10.88;3.25;;;20.50;98.10;;;;;;4920025;29;20029;-83
2023/08/17 07:45:20;;;;;;;8.75;3.00;;;20.60;97.90;;;;;;4906828;29;20070;-84
2023/08/17 07:47:46;;;;;;;9.90;3.08;;;20.60;97.90;;;;;;4923133;29;20108;-83
2023/08/17 07:50:12;;;;;;;8.80;3.20;;;20.70;97.90;;;;;;4906812;29;20027;-83
2023/08/17 07:52:37;;;;;;;8.68;2.67;;;20.70;97.70;;;;;;4921411;29;20083;-83
2023/08/17 07:55:03;;;;;;;7.22;2.72;;;20.70;97.70;;;;;;4918955;29;20036;-83
2023/08/17 07:57:29;;;;;;;7.97;2.72;;;20.70;97.90;;;;;;4916791;29;20020;-83
2023/08/17 07:59:57;;;;;;;5.32;2.90;;;20.70;97.60;;;;;;4921641;29;20111;-84
2023/08/17 08:02:22;;;;;;;11.60;3.30;;;20.70;97.80;;;;;;4918739;29;20047;-81
2023/08/17 08:04:48;;;;;;;8.93;3.75;;;20.70;98.30;;;;;;4924192;29;20054;-83
2023/08/17 08:07:14;;;;;;;8.57;2.92;;;20.60;98.00;;;;;;4922083;29;20027;-84
2023/08/17 08:09:42;;;;;;;10.48;3.00;;;20.70;97.50;;;;;;4924063;29;20048;-83
2023/08/17 08:12:10;;;;;;;6.45;2.53;;;20.70;97.30;;;;;;4909699;29;20126;-83
2023/08/17 08:14:35;;;;;;;16.60;4.28;;;20.80;97.20;;;;;;4921756;29;20038;-83
2023/08/17 08:17:01;;;;;;;7.75;3.50;;;20.80;97.30;;;;;;4924528;29;20031;-84
2023/08/17 08:19:26;;;;;;;11.25;3.63;;;20.90;97.20;;;;;;4924738;29;20028;-83
2023/08/17 08:21:52;;;;;;;9.63;3.30;;;20.80;97.20;;;;;;4925457;29;20478;-84
2023/08/17 08:24:18;;;;;;;10.25;3.97;;;20.80;97.10;;;;;;4925850;29;20023;-83
2023/08/17 08:26:43;;;;;;;10.10;4.32;;;20.80;97.20;;;;;;4923200;29;20028;-83
2023/08/17 08:29:09;;;;;;;10.50;3.97;;;20.80;97.20;;;;;;4918960;29;20020;-83
2023/08/17 08:31:35;;;;;;;11.35;4.10;;;20.90;97.30;;;;;;4907848;29;20024;-84
2023/08/17 08:34:00;;;;;;;11.15;4.25;;;20.80;97.20;;;;;;4920476;29;20032;-83
2023/08/17 08:36:26;;;;;;;7.97;4.07;;;20.80;97.50;;;;;;4922412;29;20404;-83
2023/08/17 08:38:52;;;;;;;8.93;4.00;;;20.90;97.30;;;;;;4922019;29;20103;-83
2023/08/17 08:41:19;;;;;;;10.80;3.88;;;21.00;97.40;;;;;;4923402;29;20044;-83
2023/08/17 08:43:47;;;;;;;8.48;4.47;;;21.00;97.00;;;;;;4922794;29;20050;-83
2023/08/17 08:46:14;;;;;;;10.00;3.90;;;21.10;96.90;;;;;;4921031;29;20102;-83
2023/08/17 08:48:42;;;;;;;12.68;4.38;;;21.10;97.00;;;;;;4925914;29;20027;-83
2023/08/17 08:51:10;;;;;;;9.18;3.83;;;21.10;97.00;;;;;;4905870;29;20028;-83
2023/08/17 08:53:47;;;;;;;10.48;3.55;;;21.20;97.00;;;;;;4912942;29;20588;-83
2023/08/17 08:56:15;;;;;;;9.65;4.18;;;21.30;96.70;;;;;;4924354;29;20028;-83
2023/08/17 08:58:42;;;;;;;9.48;3.90;;;21.30;96.90;;;;;;4918874;29;20457;-83
2023/08/17 09:01:15;;;;;;;8.30;3.55;;;21.30;96.40;;;;;;4904159;29;20062;-83
2023/08/17 09:03:41;;;;;;;;;;;21.40;96.60;;;;;;4905061;29;20048;-83
2023/08/17 09:06:08;;;;;;;15.73;4.32;;;21.40;96.50;;;;;;4924680;29;19922;-83
2023/08/17 09:08:34;;;;;;;7.85;4.25;;;21.40;96.50;;;;;;4920562;29;20485;-83
2023/08/17 09:10:59;;;;;;;12.80;4.57;;;21.30;96.40;;;;;;4906154;29;20081;-83
2023/08/17 09:13:25;;;;;;;12.52;4.93;;;21.30;96.40;;;;;;4923280;29;20074;-83
2023/08/17 09:15:51;;;;;;;12.00;4.38;;;21.40;96.50;;;;;;4921578;29;20030;-83
2023/08/17 09:18:18;;;;;;;13.90;4.40;;;21.40;96.50;;;;;;4906515;29;20030;-83
2023/08/17 09:20:45;;;;;;;13.10;4.80;;;21.50;96.50;;;;;;4907225;29;20024;-83
2023/08/17 09:23:15;;;;;;;11.35;4.53;;;21.50;96.40;;;;;;4923185;29;20119;-84
2023/08/17 09:25:42;;;;;;;13.13;4.90;;;21.50;96.20;;;;;;4920930;29;20118;-83
2023/08/17 09:28:16;;;;;;;12.38;4.57;;;21.50;96.30;;;;;;4911167;29;20400;-83
2023/08/17 09:30:54;;;;;;;7.15;4.72;;;21.60;96.10;;;;;;4921912;29;20024;-84
2023/08/17 09:33:27;;;;;;;8.07;3.75;;;21.60;96.20;;;;;;4928417;29;20036;-84
2023/08/17 09:35:54;;;;;;;8.25;5.28;;;21.60;95.90;;;;;;4922249;29;20028;-84
2023/08/17 09:38:20;;;;;;;6.55;4.18;;;21.60;96.20;;;;;;4917965;29;20551;-83
2023/08/17 09:40:51;;;;;;;5.57;4.10;;;21.60;95.90;;;;;;4920901;29;20028;-84
2023/08/17 09:43:18;;;;;;;8.80;3.97;;;21.70;95.80;;;;;;4922291;29;20119;-84
2023/08/17 09:45:47;;;;;;;7.70;4.60;;;21.70;95.90;;;;;;4918680;29;20025;-84
2023/08/17 09:48:16;;;;;;;13.77;5.03;;;21.70;96.10;;;;;;4923873;29;20035;-84
2023/08/17 09:50:43;;;;;;;7.78;4.43;;;21.70;96.10;;;;;;4922050;29;20119;-82
2023/08/17 09:53:13;;;;;;;10.32;4.45;;;21.70;95.90;;;;;;4908151;29;20528;-83
2023/08/17 09:55:43;;;;;;;10.68;4.82;;;21.60;96.00;;;;;;4919247;29;20027;-83
2023/08/17 09:58:09;;;;;;;8.88;4.72;;;21.80;95.60;;;;;;4915624;29;20034;-84
2023/08/17 10:00:38;;;;;;;10.27;4.32;;;21.70;95.60;;;;;;4907278;29;20141;-83
2023/08/17 10:03:04;;;;;;;9.07;4.70;;;21.70;95.80;;;;;;4917453;29;20563;-84
2023/08/17 10:05:38;;;;;;;9.23;5.22;;;21.70;95.90;;;;;;4925329;29;20058;-84
2023/08/17 10:08:05;;;;;;;9.10;5.05;;;21.70;95.90;;;;;;4922045;29;20458;-83
2023/08/17 10:10:35;;;;;;;10.00;5.03;;;21.80;95.60;;;;;;4919308;29;20059;-83
2023/08/17 10:13:35;;;;;;;9.35;4.80;;;21.80;96.00;;;;;;4903743;29;20052;-83
2023/08/17 10:16:19;;;;;;;7.72;4.15;;;21.80;95.90;;;;;;4920938;29;20020;-84
2023/08/17 10:18:57;;;;;;;11.05;4.93;;;21.90;95.50;;;;;;4922514;29;20585;-83
2023/08/17 10:21:31;;;;;;;10.75;4.40;;;21.90;95.80;;;;;;4921668;29;20028;-83
2023/08/17 10:24:00;;;;;;;10.00;5.32;;;22.00;95.50;;;;;;4940319;29;20055;-83
2023/08/17 10:26:26;;;;;;;9.27;5.22;;;22.00;95.30;;;;;;4939238;29;20445;-81
2023/08/17 10:28:52;;;;;;;15.60;4.95;;;22.00;95.30;;;;;;4913703;29;20020;-84
2023/08/17 10:31:19;;;;;;;9.13;4.57;;;22.00;95.60;;;;;;4918860;29;20031;-83
2023/08/17 10:33:47;;;;;;;6.32;4.90;;;22.10;95.50;;;;;;4920990;29;20029;-83
2023/08/17 10:36:14;;;;;;;11.73;5.82;;;21.90;95.10;;;;;;4922461;29;20020;-83
2023/08/17 10:38:40;;;;;;;9.82;5.03;;;22.20;95.30;;;;;;4911096;29;20107;-83
2023/08/17 10:41:13;;;;;;;15.20;4.93;;;22.20;95.00;;;;;;4922096;29;20385;-83
2023/08/17 10:43:59;;;;;;;13.45;5.53;;;22.20;95.30;;;;;;4920826;29;20098;-84
2023/08/17 10:46:39;;;;;;;6.30;5.30;;;22.20;95.00;;;;;;4917726;29;20241;-84
2023/08/17 10:49:06;;;;;;;9.40;5.30;;;22.30;95.10;;;;;;4923908;29;20047;-83
2023/08/17 10:51:32;;;;;;;11.77;5.90;;;22.20;95.20;;;;;;4923256;29;20024;-84
2023/08/17 10:54:02;;;;;;;14.68;4.88;;;22.30;95.20;;;;;;4902738;29;20467;-84
2023/08/17 10:56:29;;;;;;;8.75;5.65;;;22.20;95.40;;;;;;4922729;29;20408;-84
2023/08/17 10:59:00;;;;;;;6.72;5.43;;;22.10;95.40;;;;;;4921739;29;20023;-84
2023/08/17 11:01:33;;;;;;;14.45;5.68;;;22.10;95.60;;;;;;4924046;29;20464;-84
2023/08/17 11:04:12;;;;;;;12.75;5.18;;;22.20;95.30;;;;;;4922307;29;20038;-83
2023/08/17 11:06:38;;;;;;;9.45;5.43;;;22.20;95.10;;;;;;4923702;29;20046;-84
2023/08/17 11:09:10;;;;;;;11.50;5.25;;;22.20;95.40;;;;;;4921069;29;20027;-83
2023/08/17 11:11:38;;;;;;;9.25;6.20;;;22.20;95.50;;;;;;4919016;29;20060;-85
2023/08/17 11:14:04;;;;;;;10.18;6.40;;;22.20;95.60;;;;;;4904280;29;20016;-84
2023/08/17 11:16:31;;;;;;;11.48;5.82;;;22.20;95.30;;;;;;4903910;29;20026;-83
2023/08/17 11:18:59;;;;;;;16.13;7.18;;;;;;;;;;4905362;29;20024;-83
2023/08/17 11:21:25;;;;;;;13.43;6.60;;;22.40;95.10;;;;;;4919991;29;20175;-83
2023/08/17 11:23:50;;;;;;;7.95;6.03;;;22.40;95.40;;;;;;4910969;29;20464;-84
2023/08/17 11:26:17;;;;;;;11.95;7.38;;;22.40;95.40;;;;;;4902710;29;20022;-84
2023/08/17 11:28:44;;;;;;;9.07;6.07;;;22.40;94.80;;;;;;4921723;29;20579;-83
2023/08/17 11:31:12;;;;;;;14.23;7.60;;;22.50;95.20;;;;;;4920654;29;20024;-83
2023/08/17 11:33:41;;;;;;;9.30;5.65;;;22.60;94.90;;;;;;4902693;29;20167;-83
2023/08/17 11:36:08;;;;;;;8.43;5.78;;;22.60;94.70;;;;;;4919996;29;20028;-83
2023/08/17 11:38:35;;;;;;;10.30;5.40;;;22.50;95.00;;;;;;4919308;29;20046;-83
2023/08/17 11:41:02;;;;;;;14.57;7.00;;;22.60;95.00;;;;;;4924110;29;20032;-84
2023/08/17 11:43:29;;;;;;;9.93;5.97;;;22.60;95.00;;;;;;4919518;29;20032;-82
2023/08/17 11:45:56;;;;;;;15.63;6.22;;;22.70;94.90;;;;;;4923507;29;20396;-84
2023/08/17 11:48:23;;;;;;;7.30;5.45;;;22.60;94.70;;;;;;4924072;29;20027;-83
2023/08/17 11:50:49;;;;;;;9.43;6.50;;;22.60;94.80;;;;;;4925475;29;20118;-84
2023/08/17 11:53:15;;;;;;;11.70;5.93;;;22.50;94.50;;;;;;4923612;29;20038;-83
2023/08/17 11:55:41;;;;;;;9.73;6.70;;;22.50;94.70;;;;;;4904135;29;20040;-84
2023/08/17 11:58:07;;;;;;;12.10;7.43;;;22.40;95.00;;;;;;4902599;29;20456;-83
2023/08/17 12:00:39;;;;;;;7.95;6.32;;;22.40;95.00;;;;;;4925347;29;20087;-83
2023/08/17 12:03:07;;;;;;;8.53;6.50;;;22.40;95.10;;;;;;4922610;29;20036;-83
2023/08/17 12:05:33;;;;;;;10.50;6.60;;;22.30;95.50;;;;;;4926654;29;20106;-84
2023/08/17 12:08:03;;;;;;;10.13;6.13;;;22.30;95.40;;;;;;4922184;29;20543;-83
2023/08/17 12:10:31;;;;;;;7.85;6.05;;;22.40;95.50;;;;;;4922963;29;20035;-84
2023/08/17 12:13:00;;;;;;;13.10;6.10;;;22.40;95.30;;;;;;4921231;29;20480;-83
2023/08/17 12:15:35;;;;;;;10.02;6.50;;;22.50;95.50;;;;;;4906037;29;20031;-83
2023/08/17 12:18:04;;;;;;;10.80;6.45;;;22.60;95.10;;;;;;4921267;29;20034;-83
2023/08/17 12:20:35;;;;;;;9.73;6.88;;;22.60;95.20;;;;;;4924376;29;20036;-83
2023/08/17 12:23:02;;;;;;;11.52;6.43;;;22.60;95.10;;;;;;4906915;29;20113;-83
2023/08/17 12:25:28;;;;;;;12.93;7.15;;;22.60;94.90;;;;;;4906523;29;20032;-83
2023/08/17 12:27:54;;;;;;;14.52;8.20;;;22.70;94.70;;;;;;4924115;29;20111;-84
2023/08/17 12:30:31;;;;;;;10.60;6.53;;;22.60;95.00;;;;;;4918129;29;20056;-84
2023/08/17 12:32:59;;;;;;;13.63;6.95;;;22.60;95.10;;;;;;4921995;29;20040;-83
2023/08/17 12:35:26;;;;;;;13.98;7.10;;;22.70;95.10;;;;;;4926813;29;20480;-83
2023/08/17 12:37:52;;;;;;;13.25;7.30;;;22.70;94.70;;;;;;4926800;29;20095;-84
2023/08/17 12:40:21;;;;;;;12.25;7.80;;;22.70;95.00;;;;;;4918821;29;20036;-83
2023/08/17 12:42:47;;;;;;;13.75;7.10;;;;;;;;;;4917004;29;20032;-83
2023/08/17 12:45:13;;;;;;;14.95;7.20;;;22.90;94.60;;;;;;4924950;29;20552;-83